METAR Data

Data at: 2119 UTC 01 Dec 2021

METAR for:KLCI (Laconia Muni, NH, US)
Text:KLCI 012056Z AUTO 25013KT 10SM CLR 03/M07 A3006 RMK AO2 SLP185 T00331072 53017
Temperature: 3.3°C ( 38°F)
Dewpoint: -7.2°C ( 19°F) [RH = 46%]
Pressure (altimeter):30.06 inches Hg (1018.0 mb) [Sea level pressure: 1018.5 mb]
Winds:from the WSW (250 degrees) at 15 MPH (13 knots; 6.7 m/s)
Visibility:10 or more sm (16+ km)
Ceiling:at least 12,000 feet AGL
Clouds:sky clear below 12,000 feet AGL
QC Flag:automated observation with no human augmentation